createdAt,value
2022-10-05T00:00:28.006Z,53.21
2022-10-05T00:02:32.149Z,53.25
2022-10-05T00:04:35.350Z,53.21
2022-10-05T00:06:36.990Z,53.04
2022-10-05T00:08:38.576Z,53.02
2022-10-05T00:10:41.627Z,52.89
2022-10-05T00:12:48.022Z,52.92
2022-10-05T00:14:55.505Z,52.62
2022-10-05T00:16:57.989Z,52.83
2022-10-05T00:18:59.960Z,53.00
2022-10-05T00:21:04.546Z,52.99
2022-10-05T00:23:16.342Z,53.80
2022-10-05T00:25:21.831Z,53.09
2022-10-05T00:27:26.538Z,53.46
2022-10-05T00:29:30.521Z,53.06
2022-10-05T00:31:35.539Z,53.44
2022-10-05T00:33:37.313Z,53.37
2022-10-05T00:35:40.060Z,53.09
2022-10-05T00:37:42.559Z,53.15
2022-10-05T00:39:45.835Z,53.32
2022-10-05T00:42:09.150Z,53.64
2022-10-05T00:44:32.683Z,53.48
2022-10-05T00:46:59.960Z,54.04
2022-10-05T00:49:35.312Z,53.46
2022-10-05T00:51:38.704Z,53.14
2022-10-05T00:54:00.624Z,53.58
2022-10-05T00:56:15.035Z,53.08
2022-10-05T00:58:36.991Z,53.11
2022-10-05T01:01:13.016Z,53.23
2022-10-05T01:03:24.070Z,53.51
2022-10-05T01:05:52.897Z,53.41
2022-10-05T01:08:23.074Z,53.08
2022-10-05T01:10:51.276Z,53.47
2022-10-05T01:13:05.058Z,53.51
2022-10-05T01:15:31.552Z,53.46
2022-10-05T01:17:49.056Z,53.21
2022-10-05T01:20:18.700Z,53.08
2022-10-05T01:22:37.998Z,53.18
2022-10-05T01:24:45.044Z,53.33
2022-10-05T01:27:16.130Z,53.17
2022-10-05T01:29:28.232Z,53.45
2022-10-05T01:31:39.789Z,53.14
2022-10-05T01:33:46.853Z,53.12
2022-10-05T01:36:08.357Z,53.10
2022-10-05T01:38:35.413Z,53.03
2022-10-05T01:40:53.567Z,53.09
2022-10-05T01:43:07.049Z,53.11
2022-10-05T01:45:38.718Z,52.98
2022-10-05T01:47:50.307Z,53.21
2022-10-05T01:50:01.274Z,53.23
2022-10-05T01:52:17.678Z,53.10
2022-10-05T01:55:07.464Z,53.34
2022-10-05T01:57:36.669Z,53.22
2022-10-05T01:59:47.176Z,53.31
2022-10-05T02:01:57.114Z,53.48
2022-10-05T02:04:24.409Z,53.39
2022-10-05T02:06:50.122Z,53.60
2022-10-05T02:09:08.351Z,53.50
2022-10-05T02:11:13.659Z,53.66
2022-10-05T02:13:18.412Z,53.38
2022-10-05T02:15:27.792Z,53.58
2022-10-05T02:17:38.880Z,53.44
2022-10-05T02:19:47.778Z,53.53
2022-10-05T02:22:14.803Z,53.50
2022-10-05T02:24:25.176Z,53.49
2022-10-05T02:26:28.609Z,53.46
2022-10-05T02:28:53.809Z,53.64
2022-10-05T02:31:04.555Z,53.55
2022-10-05T02:33:23.230Z,53.59
2022-10-05T02:35:25.171Z,53.46
2022-10-05T02:37:46.283Z,53.60
2022-10-05T02:40:09.600Z,53.67
2022-10-05T02:42:16.945Z,53.74
2022-10-05T02:44:42.108Z,53.83
2022-10-05T02:47:02.910Z,53.61
2022-10-05T02:49:35.850Z,53.72
2022-10-05T02:52:05.801Z,53.93
2022-10-05T02:54:21.617Z,53.85
2022-10-05T02:56:29.965Z,53.76
2022-10-05T02:58:45.107Z,53.87
2022-10-05T03:01:03.240Z,54.03
2022-10-05T03:03:25.575Z,54.19
2022-10-05T03:05:42.006Z,53.91
2022-10-05T03:08:13.063Z,54.05
2022-10-05T03:10:28.393Z,53.91
2022-10-05T03:12:39.157Z,54.06
2022-10-05T03:14:57.240Z,53.84
2022-10-05T03:17:19.220Z,53.88
2022-10-05T03:19:37.259Z,53.75
2022-10-05T03:22:11.128Z,53.73
2022-10-05T03:25:08.929Z,53.78
2022-10-05T03:27:30.946Z,54.35
2022-10-05T03:29:40.608Z,53.80
2022-10-05T03:31:53.930Z,53.90
2022-10-05T03:34:14.814Z,53.87
2022-10-05T03:36:36.685Z,54.04
2022-10-05T03:38:55.459Z,53.96
2022-10-05T03:41:17.996Z,53.95
2022-10-05T03:43:49.240Z,53.83
2022-10-05T03:46:08.482Z,53.92
2022-10-05T03:48:19.559Z,53.91
2022-10-05T03:50:30.894Z,53.92
2022-10-05T03:52:45.342Z,54.09
2022-10-05T03:54:54.702Z,53.95
2022-10-05T03:57:01.865Z,54.16
2022-10-05T03:59:20.718Z,54.14
2022-10-05T04:01:31.627Z,54.25
2022-10-05T04:03:45.277Z,54.21
2022-10-05T04:05:55.574Z,54.29
2022-10-05T04:08:07.867Z,54.38
2022-10-05T04:10:19.083Z,54.24
2022-10-05T04:12:27.248Z,54.02
2022-10-05T04:14:36.935Z,54.04
2022-10-05T04:16:45.210Z,54.18
2022-10-05T04:19:10.365Z,54.06
2022-10-05T04:21:23.680Z,54.15
2022-10-05T04:23:44.555Z,54.41
2022-10-05T04:25:54.117Z,54.05
2022-10-05T04:28:15.442Z,54.38
2022-10-05T04:30:22.371Z,54.29
2022-10-05T04:32:37.392Z,54.33
2022-10-05T04:34:59.476Z,54.11
2022-10-05T04:37:07.984Z,54.44
2022-10-05T04:39:15.161Z,54.21
2022-10-05T04:41:46.242Z,54.30
2022-10-05T04:44:28.274Z,54.13
2022-10-05T04:46:33.261Z,54.19
2022-10-05T04:48:57.191Z,54.28
2022-10-05T04:51:11.334Z,54.26
2022-10-05T04:53:24.489Z,54.40
2022-10-05T04:55:57.504Z,54.36
2022-10-05T04:58:18.522Z,54.45
2022-10-05T05:00:22.678Z,54.44
2022-10-05T05:02:44.545Z,54.50
2022-10-05T05:05:22.109Z,54.41
2022-10-05T05:07:32.226Z,54.51
2022-10-05T05:09:57.538Z,54.59
2022-10-05T05:12:28.104Z,54.51
2022-10-05T05:14:52.128Z,54.67
2022-10-05T05:17:13.591Z,54.65
2022-10-05T05:19:52.263Z,54.49
2022-10-05T05:22:32.742Z,54.74
2022-10-05T05:24:45.358Z,54.77
2022-10-05T05:27:03.582Z,54.83
2022-10-05T05:29:40.048Z,54.77
2022-10-05T05:31:50.580Z,54.86
2022-10-05T05:34:15.437Z,54.94
2022-10-05T05:36:35.521Z,54.85
2022-10-05T05:38:40.862Z,54.83
2022-10-05T05:41:07.213Z,54.91
2022-10-05T05:43:38.009Z,54.96
2022-10-05T05:45:49.731Z,55.06
2022-10-05T05:47:54.728Z,54.90
2022-10-05T05:50:30.523Z,55.11
2022-10-05T05:52:46.855Z,54.93
2022-10-05T05:54:57.881Z,55.13
2022-10-05T05:57:12.399Z,55.05
2022-10-05T05:59:25.995Z,54.94
2022-10-05T06:01:39.465Z,55.04
2022-10-05T06:03:52.701Z,55.09
2022-10-05T06:06:06.975Z,55.17
2022-10-05T06:08:46.122Z,54.88
2022-10-05T06:11:25.957Z,55.00
2022-10-05T06:13:38.565Z,54.96
2022-10-05T06:15:55.663Z,55.39
2022-10-05T06:18:01.551Z,54.90
2022-10-05T06:20:35.555Z,55.79
2022-10-05T06:22:44.431Z,55.01
2022-10-05T06:25:13.665Z,55.65
2022-10-05T06:27:37.604Z,55.24
2022-10-05T06:30:09.964Z,55.20
2022-10-05T06:32:34.519Z,55.77
2022-10-05T06:34:57.188Z,56.11
2022-10-05T06:37:04.638Z,55.48
2022-10-05T06:39:42.465Z,55.47
2022-10-05T06:42:01.662Z,55.58
2022-10-05T06:44:54.689Z,55.27
2022-10-05T06:47:29.402Z,55.69
2022-10-05T06:50:05.004Z,56.25
2022-10-05T06:52:39.993Z,55.64
2022-10-05T06:55:13.201Z,56.08
2022-10-05T06:57:37.977Z,55.98
2022-10-05T07:00:21.842Z,55.66
2022-10-05T07:02:59.592Z,55.94
2022-10-05T07:05:39.869Z,55.71
2022-10-05T07:07:59.520Z,55.92
2022-10-05T07:10:35.231Z,56.15
2022-10-05T07:13:09.310Z,56.22
2022-10-05T07:15:27.041Z,56.34
2022-10-05T07:17:34.234Z,55.94
2022-10-05T07:19:41.725Z,55.82
2022-10-05T07:22:19.191Z,55.83
2022-10-05T07:24:33.163Z,56.29
2022-10-05T07:26:42.347Z,55.73
2022-10-05T07:29:12.910Z,56.01
2022-10-05T07:31:17.730Z,55.96
2022-10-05T07:33:38.209Z,56.26
2022-10-05T07:36:11.122Z,55.76
2022-10-05T07:38:41.566Z,56.16
2022-10-05T07:40:53.223Z,55.83
2022-10-05T07:43:01.106Z,56.08
2022-10-05T07:45:33.957Z,55.70
2022-10-05T07:47:51.596Z,55.48
2022-10-05T07:49:59.666Z,55.19
2022-10-05T07:52:06.735Z,55.06
2022-10-05T07:54:20.490Z,54.90
2022-10-05T07:56:38.013Z,54.78
2022-10-05T07:58:56.917Z,54.88
2022-10-05T08:01:11.203Z,54.56
2022-10-05T08:03:34.034Z,54.49
2022-10-05T08:05:40.894Z,54.44
2022-10-05T08:07:43.234Z,54.13
2022-10-05T08:09:54.921Z,54.27
2022-10-05T08:12:02.653Z,53.98
2022-10-05T08:14:46.546Z,54.23
2022-10-05T08:16:50.421Z,54.21
2022-10-05T08:19:02.384Z,54.07
2022-10-05T08:21:12.523Z,54.04
2022-10-05T08:23:51.870Z,54.26
2022-10-05T08:26:28.982Z,54.23
2022-10-05T08:28:47.088Z,54.24
2022-10-05T08:30:57.199Z,54.71
2022-10-05T08:33:18.253Z,54.77
2022-10-05T08:35:43.975Z,55.42
2022-10-05T08:37:47.822Z,54.80
2022-10-05T08:40:18.635Z,54.98
2022-10-05T08:42:38.396Z,54.32
2022-10-05T08:45:02.243Z,54.18
2022-10-05T08:47:32.168Z,54.66
2022-10-05T08:50:10.996Z,54.21
2022-10-05T08:52:29.283Z,54.34
2022-10-05T08:54:58.918Z,54.71
2022-10-05T08:57:35.137Z,54.34
2022-10-05T08:59:39.755Z,54.26
2022-10-05T09:02:06.081Z,53.77
2022-10-05T09:04:25.060Z,53.90
2022-10-05T09:07:05.521Z,53.99
2022-10-05T09:09:29.164Z,53.92
2022-10-05T09:11:57.588Z,53.85
2022-10-05T09:14:21.651Z,53.74
2022-10-05T09:16:31.840Z,53.70
2022-10-05T09:18:54.523Z,53.90
2022-10-05T09:21:06.453Z,53.62
2022-10-05T09:23:30.857Z,53.50
2022-10-05T09:25:42.566Z,53.43
2022-10-05T09:27:53.640Z,53.46
2022-10-05T09:30:15.883Z,53.39
2022-10-05T09:32:52.793Z,53.18
2022-10-05T09:34:57.387Z,53.09
2022-10-05T09:37:16.296Z,53.02
2022-10-05T09:39:59.149Z,52.77
2022-10-05T09:42:35.809Z,52.60
2022-10-05T09:45:19.044Z,52.24
2022-10-05T09:48:00.902Z,52.31
2022-10-05T09:50:55.125Z,52.21
2022-10-05T09:53:24.796Z,51.99
2022-10-05T09:55:39.523Z,52.15
2022-10-05T09:58:38.251Z,51.76
2022-10-05T10:01:15.482Z,51.85
2022-10-05T10:03:56.822Z,51.57
2022-10-05T10:06:18.860Z,51.28
2022-10-05T10:08:45.652Z,51.40
2022-10-05T10:11:02.537Z,51.37
2022-10-05T10:13:33.975Z,51.16
2022-10-05T10:16:03.618Z,51.19
2022-10-05T10:18:17.189Z,51.29
2022-10-05T10:20:24.865Z,51.17
2022-10-05T10:22:52.986Z,51.24
2022-10-05T10:25:03.670Z,50.74
2022-10-05T10:27:16.807Z,51.09
2022-10-05T10:29:42.451Z,51.17
2022-10-05T10:32:06.937Z,51.03
2022-10-05T10:34:37.738Z,50.45
2022-10-05T10:37:11.124Z,50.35
2022-10-05T10:39:35.942Z,50.61
2022-10-05T10:41:57.647Z,50.25
2022-10-05T10:44:34.490Z,49.50
2022-10-05T10:46:53.881Z,49.99
2022-10-05T10:48:57.511Z,49.91
2022-10-05T10:51:41.020Z,49.96
2022-10-05T10:53:51.578Z,49.46
2022-10-05T10:56:22.936Z,49.66
2022-10-05T10:58:27.214Z,49.31
2022-10-05T11:00:50.376Z,48.96
2022-10-05T11:03:28.196Z,49.26
2022-10-05T11:05:39.168Z,48.97
2022-10-05T11:07:58.363Z,49.26
2022-10-05T11:10:26.342Z,49.02
2022-10-05T11:12:34.911Z,49.13
2022-10-05T11:15:01.385Z,48.66
2022-10-05T11:17:08.976Z,49.03
2022-10-05T11:20:06.336Z,49.25
2022-10-05T11:22:35.970Z,47.90
2022-10-05T11:24:40.035Z,48.15
2022-10-05T11:27:09.635Z,48.46
2022-10-05T11:29:31.121Z,47.98
2022-10-05T11:32:06.758Z,47.80
2022-10-05T11:34:17.034Z,48.80
2022-10-05T11:36:40.254Z,48.34
2022-10-05T11:38:48.293Z,47.98
2022-10-05T11:40:56.158Z,47.87
2022-10-05T11:43:06.475Z,47.88
2022-10-05T11:45:31.477Z,47.80
2022-10-05T11:48:06.326Z,47.39
2022-10-05T11:50:24.223Z,47.35
2022-10-05T11:52:35.787Z,47.70
2022-10-05T11:55:09.704Z,47.34
2022-10-05T11:57:27.286Z,47.89
2022-10-05T11:59:39.391Z,47.89
2022-10-05T12:02:28.138Z,47.99
2022-10-05T12:04:35.291Z,47.37
2022-10-05T12:06:51.599Z,46.91
2022-10-05T12:09:17.894Z,47.54
2022-10-05T12:11:25.462Z,47.31
2022-10-05T12:14:22.424Z,46.77
2022-10-05T12:16:34.314Z,47.25
2022-10-05T12:18:39.442Z,47.34
2022-10-05T12:21:02.188Z,47.25
2022-10-05T12:23:23.748Z,46.15
2022-10-05T12:25:34.029Z,46.55
2022-10-05T12:27:44.022Z,46.31
2022-10-05T12:30:00.600Z,45.74
2022-10-05T12:32:35.361Z,46.01
2022-10-05T12:35:01.642Z,46.25
2022-10-05T12:37:13.906Z,46.01
2022-10-05T12:39:37.835Z,45.96
2022-10-05T12:42:10.313Z,45.80
2022-10-05T12:44:23.677Z,45.84
2022-10-05T12:46:35.081Z,45.32
2022-10-05T12:49:03.036Z,45.27
2022-10-05T12:51:45.214Z,45.28
2022-10-05T12:54:14.783Z,45.23
2022-10-05T12:56:32.258Z,44.99
2022-10-05T12:59:01.314Z,45.17
2022-10-05T13:01:14.192Z,45.19
2022-10-05T13:03:23.322Z,45.27
2022-10-05T13:05:35.412Z,45.21
2022-10-05T13:07:49.022Z,44.79
2022-10-05T13:10:01.273Z,45.14
2022-10-05T13:12:16.176Z,44.75
2022-10-05T13:14:36.800Z,44.59
2022-10-05T13:16:55.324Z,44.62
2022-10-05T13:19:13.459Z,44.76
2022-10-05T13:21:27.589Z,44.68
2022-10-05T13:23:41.614Z,44.60
2022-10-05T13:26:10.807Z,44.45
2022-10-05T13:28:17.097Z,44.74
2022-10-05T13:30:24.529Z,44.59
2022-10-05T13:32:46.877Z,44.54
2022-10-05T13:34:48.486Z,44.61
2022-10-05T13:37:33.820Z,44.45
2022-10-05T13:40:10.274Z,44.47
2022-10-05T13:42:49.522Z,44.39
2022-10-05T13:45:00.338Z,44.60
2022-10-05T13:47:10.471Z,44.72
2022-10-05T13:49:29.603Z,44.13
2022-10-05T13:51:46.265Z,44.57
2022-10-05T13:54:38.124Z,43.99
2022-10-05T13:56:48.915Z,44.55
2022-10-05T13:59:23.361Z,44.14
2022-10-05T14:01:41.428Z,44.82
2022-10-05T14:04:04.836Z,44.31
2022-10-05T14:06:26.453Z,44.10
2022-10-05T14:08:50.932Z,44.37
2022-10-05T14:10:54.374Z,44.81
2022-10-05T14:12:56.143Z,44.50
2022-10-05T14:14:58.829Z,44.38
2022-10-05T14:17:05.812Z,44.32
2022-10-05T14:19:07.593Z,44.43
2022-10-05T14:21:19.086Z,44.54
2022-10-05T14:23:26.964Z,44.49
2022-10-05T14:25:30.260Z,44.39
2022-10-05T14:27:48.670Z,44.36
2022-10-05T14:30:01.313Z,44.18
2022-10-05T14:32:29.777Z,44.57
2022-10-05T14:34:34.686Z,44.63
2022-10-05T14:36:40.343Z,44.23
2022-10-05T14:38:56.875Z,44.58
2022-10-05T14:41:07.911Z,44.20
2022-10-05T14:43:21.544Z,44.63
2022-10-05T14:45:30.148Z,44.49
2022-10-05T14:47:32.285Z,44.65
2022-10-05T14:49:37.437Z,44.64
2022-10-05T14:51:42.003Z,44.83
2022-10-05T14:53:56.219Z,44.66
2022-10-05T14:56:17.391Z,44.79
2022-10-05T14:58:50.442Z,45.13
2022-10-05T15:01:15.820Z,44.69
2022-10-05T15:03:42.312Z,44.90
2022-10-05T15:05:59.377Z,45.39
2022-10-05T15:08:22.723Z,45.21
2022-10-05T15:10:31.057Z,45.02
2022-10-05T15:12:38.201Z,45.50
2022-10-05T15:14:43.481Z,45.50
2022-10-05T15:16:45.481Z,45.13
2022-10-05T15:19:24.849Z,45.12
2022-10-05T15:21:26.651Z,45.59
2022-10-05T15:23:47.493Z,45.50
2022-10-05T15:26:01.892Z,45.19
2022-10-05T15:28:11.173Z,45.73
2022-10-05T15:30:20.295Z,45.35
2022-10-05T15:33:00.372Z,45.36
2022-10-05T15:35:37.279Z,45.76
2022-10-05T15:37:49.046Z,45.93
2022-10-05T15:40:02.589Z,45.87
2022-10-05T15:42:11.935Z,45.78
2022-10-05T15:44:38.536Z,46.00
2022-10-05T15:46:56.918Z,45.64
2022-10-05T15:49:20.441Z,45.69
2022-10-05T15:51:34.429Z,45.62
2022-10-05T15:54:27.068Z,45.70
2022-10-05T15:56:38.783Z,46.28
2022-10-05T15:58:55.696Z,46.29
2022-10-05T16:01:10.123Z,46.29
2022-10-05T16:03:30.298Z,46.36
2022-10-05T16:06:06.217Z,46.46
2022-10-05T16:08:37.024Z,46.48
2022-10-05T16:10:46.448Z,46.39
2022-10-05T16:13:12.247Z,46.49
2022-10-05T16:15:27.556Z,46.13
2022-10-05T16:17:48.040Z,46.62
2022-10-05T16:20:20.685Z,46.72
2022-10-05T16:22:34.278Z,46.44
2022-10-05T16:24:50.616Z,46.42
2022-10-05T16:27:13.453Z,46.53
2022-10-05T16:29:24.691Z,46.74
2022-10-05T16:31:40.666Z,46.33
2022-10-05T16:33:59.029Z,46.52
2022-10-05T16:36:18.145Z,46.75
2022-10-05T16:38:39.956Z,46.50
2022-10-05T16:40:50.697Z,46.70
2022-10-05T16:42:58.729Z,46.54
2022-10-05T16:45:15.967Z,46.54
2022-10-05T16:47:34.567Z,46.54
2022-10-05T16:49:48.887Z,46.92
2022-10-05T16:51:58.059Z,46.67
2022-10-05T16:53:59.626Z,46.89
2022-10-05T16:56:06.847Z,47.00
2022-10-05T16:58:19.828Z,46.80
2022-10-05T17:00:39.148Z,46.68
2022-10-05T17:03:04.914Z,47.07
2022-10-05T17:05:38.646Z,46.83
2022-10-05T17:08:13.424Z,46.87
2022-10-05T17:10:42.905Z,47.07
2022-10-05T17:12:50.777Z,47.02
2022-10-05T17:14:58.848Z,46.93
2022-10-05T17:17:39.590Z,47.30
2022-10-05T17:19:58.172Z,47.27
2022-10-05T17:22:01.045Z,47.23
2022-10-05T17:24:12.275Z,47.24
2022-10-05T17:26:23.021Z,47.09
2022-10-05T17:28:39.399Z,47.52
2022-10-05T17:30:58.882Z,47.44
2022-10-05T17:33:15.314Z,47.54
2022-10-05T17:35:20.520Z,47.60
2022-10-05T17:37:29.501Z,47.49
2022-10-05T17:39:52.505Z,47.50
2022-10-05T17:42:26.356Z,47.72
2022-10-05T17:44:28.239Z,47.67
2022-10-05T17:46:45.987Z,47.82
2022-10-05T17:48:54.331Z,47.61
2022-10-05T17:51:14.768Z,47.90
2022-10-05T17:54:02.066Z,47.77
2022-10-05T17:56:05.468Z,47.80
2022-10-05T17:58:29.235Z,47.86
2022-10-05T18:00:42.104Z,47.69
2022-10-05T18:02:44.240Z,47.78
2022-10-05T18:04:51.642Z,48.09
2022-10-05T18:06:56.011Z,47.79
2022-10-05T18:09:21.881Z,47.80
2022-10-05T18:11:38.177Z,48.05
2022-10-05T18:13:46.428Z,48.09
2022-10-05T18:15:49.302Z,48.01
2022-10-05T18:17:56.053Z,48.11
2022-10-05T18:20:15.092Z,48.13
2022-10-05T18:22:16.773Z,48.09
2022-10-05T18:24:33.211Z,48.15
2022-10-05T18:26:48.378Z,48.17
2022-10-05T18:29:13.707Z,48.32
2022-10-05T18:31:22.205Z,48.19
2022-10-05T18:33:42.963Z,48.41
2022-10-05T18:35:58.624Z,48.41
2022-10-05T18:38:09.593Z,48.45
2022-10-05T18:40:52.723Z,48.40
2022-10-05T18:43:00.842Z,48.44
2022-10-05T18:45:39.996Z,48.57
2022-10-05T18:48:17.898Z,48.41
2022-10-05T18:50:25.671Z,48.42
2022-10-05T18:52:36.596Z,48.53
2022-10-05T18:54:49.772Z,48.42
2022-10-05T18:56:52.908Z,48.84
2022-10-05T18:59:19.201Z,48.74
2022-10-05T19:01:42.021Z,48.98
2022-10-05T19:03:54.708Z,48.74
2022-10-05T19:06:22.646Z,49.16
2022-10-05T19:08:43.174Z,49.06
2022-10-05T19:10:55.267Z,48.88
2022-10-05T19:13:25.237Z,49.15
2022-10-05T19:15:51.585Z,49.06
2022-10-05T19:18:02.357Z,48.90
2022-10-05T19:20:21.219Z,49.19
2022-10-05T19:22:47.336Z,49.50
2022-10-05T19:24:57.185Z,49.12
2022-10-05T19:27:32.344Z,49.66
2022-10-05T19:30:07.543Z,49.81
2022-10-05T19:32:17.514Z,49.70
2022-10-05T19:34:57.587Z,49.63
2022-10-05T19:37:14.180Z,49.37
2022-10-05T19:39:26.858Z,49.66
2022-10-05T19:41:55.497Z,49.71
2022-10-05T19:44:10.457Z,49.54
2022-10-05T19:46:47.974Z,49.65
2022-10-05T19:48:54.548Z,49.69
2022-10-05T19:51:01.473Z,49.70
2022-10-05T19:53:25.017Z,50.14
2022-10-05T19:55:34.804Z,49.66
2022-10-05T19:57:46.549Z,50.19
2022-10-05T19:59:48.490Z,49.98
2022-10-05T20:01:52.042Z,49.86
2022-10-05T20:03:54.181Z,49.95
2022-10-05T20:06:01.577Z,50.04
2022-10-05T20:08:05.367Z,50.14
2022-10-05T20:10:30.758Z,49.88
2022-10-05T20:12:50.780Z,50.28
2022-10-05T20:15:25.909Z,49.98
2022-10-05T20:17:47.832Z,50.38
2022-10-05T20:20:11.294Z,50.35
2022-10-05T20:22:32.820Z,50.36
2022-10-05T20:24:49.172Z,50.19
2022-10-05T20:27:07.249Z,50.34
2022-10-05T20:29:09.470Z,50.60
2022-10-05T20:31:12.646Z,50.24
2022-10-05T20:33:14.740Z,50.54
2022-10-05T20:35:23.650Z,50.33
2022-10-05T20:37:25.879Z,50.36
2022-10-05T20:39:27.352Z,50.50
2022-10-05T20:41:32.211Z,50.83
2022-10-05T20:43:33.983Z,50.50
2022-10-05T20:45:36.321Z,50.88
2022-10-05T20:47:38.134Z,50.67
2022-10-05T20:49:41.266Z,50.98
2022-10-05T20:51:43.431Z,50.93
2022-10-05T20:53:46.282Z,50.57
2022-10-05T20:55:48.079Z,50.92
2022-10-05T20:57:49.692Z,50.90
2022-10-05T20:59:51.448Z,50.97
2022-10-05T21:01:53.447Z,51.07
2022-10-05T21:03:55.241Z,50.82
2022-10-05T21:05:56.979Z,50.77
2022-10-05T21:07:58.999Z,51.12
2022-10-05T21:10:01.430Z,50.78
2022-10-05T21:12:03.205Z,50.87
2022-10-05T21:14:05.918Z,51.04
2022-10-05T21:16:12.870Z,50.78
2022-10-05T21:18:15.752Z,50.60
2022-10-05T21:20:17.297Z,50.81
2022-10-05T21:22:19.047Z,50.73
2022-10-05T21:24:21.002Z,50.69
2022-10-05T21:26:22.772Z,50.95
2022-10-05T21:28:24.604Z,50.88
2022-10-05T21:30:26.380Z,50.55
2022-10-05T21:32:28.462Z,50.67
2022-10-05T21:34:30.310Z,50.75
2022-10-05T21:36:32.689Z,50.57
2022-10-05T21:38:34.220Z,50.88
2022-10-05T21:40:35.784Z,50.49
2022-10-05T21:42:37.528Z,50.60
2022-10-05T21:44:39.115Z,50.81
2022-10-05T21:46:41.084Z,50.73
2022-10-05T21:48:42.797Z,50.50
2022-10-05T21:50:46.497Z,50.92
2022-10-05T21:52:50.055Z,50.87
2022-10-05T21:54:52.234Z,50.60
2022-10-05T21:56:57.333Z,50.59
2022-10-05T21:59:00.828Z,50.88
2022-10-05T22:01:03.153Z,50.67
2022-10-05T22:03:04.798Z,50.85
2022-10-05T22:05:06.522Z,50.74
2022-10-05T22:07:19.021Z,50.90
2022-10-05T22:09:20.687Z,51.06
2022-10-05T22:11:22.771Z,50.84
2022-10-05T22:13:25.933Z,51.14
2022-10-05T22:15:29.359Z,51.08
2022-10-05T22:17:31.832Z,51.15
2022-10-05T22:19:33.375Z,50.90
2022-10-05T22:21:41.644Z,51.13
2022-10-05T22:23:45.547Z,51.07
2022-10-05T22:25:48.225Z,50.87
2022-10-05T22:27:50.484Z,50.96
2022-10-05T22:29:52.868Z,51.11
2022-10-05T22:31:57.530Z,51.15
2022-10-05T22:33:59.373Z,51.00
2022-10-05T22:36:01.401Z,51.15
2022-10-05T22:38:04.806Z,51.29
2022-10-05T22:40:07.944Z,51.27
2022-10-05T22:42:09.968Z,51.37
2022-10-05T22:44:11.509Z,51.32
2022-10-05T22:46:13.776Z,51.41
2022-10-05T22:48:18.673Z,51.28
2022-10-05T22:50:20.678Z,51.41
2022-10-05T22:52:22.631Z,51.52
2022-10-05T22:54:28.714Z,51.60
2022-10-05T22:56:31.399Z,51.61
2022-10-05T22:58:32.986Z,51.75
2022-10-05T23:00:56.589Z,51.70
2022-10-05T23:02:56.313Z,51.75
2022-10-05T23:05:00.429Z,51.93
2022-10-05T23:07:02.261Z,51.82
2022-10-05T23:09:04.633Z,51.83
2022-10-05T23:11:12.480Z,51.96
2022-10-05T23:13:15.330Z,52.04
2022-10-05T23:15:17.061Z,52.03
2022-10-05T23:17:21.330Z,52.11
2022-10-05T23:19:23.355Z,51.98
2022-10-05T23:21:29.421Z,52.05
2022-10-05T23:23:31.259Z,52.04
2022-10-05T23:25:32.947Z,52.17
2022-10-05T23:27:41.168Z,52.41
2022-10-05T23:29:42.827Z,52.21
2022-10-05T23:31:44.615Z,52.08
2022-10-05T23:33:47.043Z,52.14
2022-10-05T23:35:48.711Z,52.26
2022-10-05T23:37:50.158Z,52.21
2022-10-05T23:39:51.671Z,52.22
2022-10-05T23:41:53.336Z,52.30
2022-10-05T23:43:55.459Z,52.48
2022-10-05T23:45:57.223Z,52.43
2022-10-05T23:47:58.861Z,52.33
2022-10-05T23:50:00.656Z,52.40
2022-10-05T23:52:02.508Z,52.44
2022-10-05T23:54:04.207Z,52.58
2022-10-05T23:56:06.438Z,52.75
2022-10-05T23:58:08.294Z,52.61
